createdAt,value
2018-09-13T00:00:55.779Z,98356.83
2018-09-13T00:03:24.735Z,98348.47
2018-09-13T00:05:53.765Z,98347.77
2018-09-13T00:08:22.766Z,98350.34
2018-09-13T00:10:52.071Z,98348.61
2018-09-13T00:13:21.331Z,98340.16
2018-09-13T00:15:50.616Z,98332.37
2018-09-13T00:18:19.755Z,98332.30
2018-09-13T00:20:49.043Z,98332.87
2018-09-13T00:23:18.040Z,98333.55
2018-09-13T00:25:46.927Z,98333.73
2018-09-13T00:28:16.131Z,98335.73
2018-09-13T00:30:45.548Z,98337.44
2018-09-13T00:33:14.718Z,98333.84
2018-09-13T00:35:43.913Z,98328.92
2018-09-13T00:38:13.363Z,98328.32
2018-09-13T00:40:42.701Z,98332.97
2018-09-13T00:43:12.160Z,98336.96
2018-09-13T00:45:41.244Z,98324.50
2018-09-13T00:48:10.278Z,98324.30
2018-09-13T00:50:39.507Z,98321.75
2018-09-13T00:53:09.089Z,98318.63
2018-09-13T00:55:38.444Z,98317.11
2018-09-13T00:58:07.753Z,98312.45
2018-09-13T01:00:37.055Z,98310.08
2018-09-13T01:03:06.331Z,98314.55
2018-09-13T01:05:35.515Z,98310.84
2018-09-13T01:08:04.673Z,98311.88
2018-09-13T01:10:34.185Z,98303.98
2018-09-13T01:13:03.430Z,98312.13
2018-09-13T01:15:32.892Z,98306.63
2018-09-13T01:18:02.072Z,98298.65
2018-09-13T01:20:30.892Z,98296.72
2018-09-13T01:23:00.060Z,98294.09
2018-09-13T01:25:29.382Z,98295.98
2018-09-13T01:27:58.764Z,98291.39
2018-09-13T01:30:27.879Z,98294.16
2018-09-13T01:32:57.363Z,98293.14
2018-09-13T01:35:26.754Z,98286.84
2018-09-13T01:37:56.141Z,98290.83
2018-09-13T01:40:25.084Z,98289.70
2018-09-13T01:42:54.287Z,98286.58
2018-09-13T01:45:23.543Z,98284.69
2018-09-13T01:47:52.912Z,98277.63
2018-09-13T01:50:22.040Z,98282.48
2018-09-13T01:52:51.277Z,98282.38
2018-09-13T01:55:20.660Z,98281.13
2018-09-13T01:57:50.108Z,98274.85
2018-09-13T02:00:19.217Z,98276.95
2018-09-13T02:02:48.215Z,98274.30
2018-09-13T02:05:17.500Z,98271.94
2018-09-13T02:07:46.736Z,98262.25
2018-09-13T02:10:15.757Z,98265.84
2018-09-13T02:12:45.142Z,98263.59
2018-09-13T02:15:14.500Z,98257.55
2018-09-13T02:17:43.832Z,98259.61
2018-09-13T02:20:13.220Z,98256.27
2018-09-13T02:22:42.464Z,98251.23
2018-09-13T02:25:11.689Z,98243.75
2018-09-13T02:27:40.787Z,98242.41
2018-09-13T02:30:10.268Z,98242.69
2018-09-13T02:32:39.680Z,98241.42
2018-09-13T02:35:09.051Z,98240.09
2018-09-13T02:37:38.370Z,98240.70
2018-09-13T02:40:07.396Z,98241.05
2018-09-13T02:42:36.327Z,98244.27
2018-09-13T02:45:05.674Z,98251.09
2018-09-13T02:47:34.872Z,98242.65
2018-09-13T02:50:04.068Z,98243.31
2018-09-13T02:52:33.408Z,98240.66
2018-09-13T02:55:02.691Z,98242.52
2018-09-13T02:57:31.812Z,98246.42
2018-09-13T03:00:01.113Z,98249.69
2018-09-13T03:02:30.321Z,98258.85
2018-09-13T03:04:59.594Z,98258.73
2018-09-13T03:07:28.986Z,98259.62
2018-09-13T03:09:58.185Z,98253.44
2018-09-13T03:12:27.268Z,98256.87
2018-09-13T03:14:56.605Z,98255.08
2018-09-13T03:17:25.676Z,98260.98
2018-09-13T03:19:54.724Z,98256.05
2018-09-13T03:22:23.970Z,98258.22
2018-09-13T03:24:52.868Z,98258.50
2018-09-13T03:27:22.324Z,98253.66
2018-09-13T03:29:51.761Z,98259.64
2018-09-13T03:32:21.052Z,98258.89
2018-09-13T03:34:50.462Z,98255.23
2018-09-13T03:37:19.528Z,98254.05
2018-09-13T03:39:48.709Z,98253.91
2018-09-13T03:42:17.635Z,98256.41
2018-09-13T03:44:46.756Z,98246.76
2018-09-13T03:47:16.100Z,98245.61
2018-09-13T03:49:45.336Z,98252.03
2018-09-13T03:52:14.659Z,98250.41
2018-09-13T03:54:44.098Z,98245.48
2018-09-13T03:57:13.428Z,98251.89
2018-09-13T03:59:42.388Z,98249.15
2018-09-13T04:02:11.731Z,98241.69
2018-09-13T04:04:40.783Z,98248.33
2018-09-13T04:07:10.227Z,98245.22
2018-09-13T04:09:39.427Z,98239.06
2018-09-13T04:12:08.746Z,98246.55
2018-09-13T04:14:37.774Z,98240.73
2018-09-13T04:17:06.839Z,98243.79
2018-09-13T04:19:46.552Z,98239.59
2018-09-13T04:22:16.740Z,98240.25
2018-09-13T04:24:46.150Z,98235.61
2018-09-13T04:27:15.548Z,98235.89
2018-09-13T04:29:44.800Z,98237.62
2018-09-13T04:32:14.252Z,98236.47
2018-09-13T04:34:43.304Z,98239.22
2018-09-13T04:37:12.732Z,98234.45
2018-09-13T04:39:42.027Z,98245.41
2018-09-13T04:42:11.288Z,98240.66
2018-09-13T04:44:40.627Z,98243.81
2018-09-13T04:47:09.645Z,98242.62
2018-09-13T04:49:39.011Z,98244.05
2018-09-13T04:52:08.387Z,98234.75
2018-09-13T04:54:37.612Z,98233.13
2018-09-13T04:57:07.061Z,98234.11
2018-09-13T04:59:36.272Z,98233.91
2018-09-13T05:02:05.456Z,98236.58
2018-09-13T05:04:34.695Z,98246.19
2018-09-13T05:07:04.156Z,98245.80
2018-09-13T05:09:33.507Z,98244.88
2018-09-13T05:12:02.833Z,98246.38
2018-09-13T05:14:32.087Z,98243.52
2018-09-13T05:17:01.340Z,98241.06
2018-09-13T05:19:30.699Z,98243.05
2018-09-13T05:22:00.005Z,98244.88
2018-09-13T05:24:29.182Z,98242.55
2018-09-13T05:26:58.310Z,98244.41
2018-09-13T05:29:27.484Z,98241.08
2018-09-13T05:31:56.827Z,98238.76
2018-09-13T05:34:25.887Z,98244.11
2018-09-13T05:36:55.272Z,98239.38
2018-09-13T05:39:24.200Z,98238.23
2018-09-13T05:41:53.363Z,98237.25
2018-09-13T05:44:22.719Z,98241.85
2018-09-13T05:46:52.080Z,98243.98
2018-09-13T05:49:21.422Z,98239.73
2018-09-13T05:51:50.672Z,98247.13
2018-09-13T05:54:19.899Z,98243.56
2018-09-13T05:56:49.273Z,98250.09
2018-09-13T05:59:18.280Z,98254.52
2018-09-13T06:01:47.216Z,98255.06
2018-09-13T06:04:16.265Z,98252.19
2018-09-13T06:06:45.656Z,98254.24
2018-09-13T06:09:14.811Z,98258.28
2018-09-13T06:11:44.283Z,98256.47
2018-09-13T06:14:13.643Z,98253.48
2018-09-13T06:16:42.992Z,98251.00
2018-09-13T06:19:12.353Z,98255.58
2018-09-13T06:21:41.659Z,98256.69
2018-09-13T06:24:10.916Z,98262.09
2018-09-13T06:26:40.397Z,98262.95
2018-09-13T06:29:09.746Z,98256.09
2018-09-13T06:31:39.167Z,98259.73
2018-09-13T06:34:08.660Z,98264.27
2018-09-13T06:36:37.724Z,98262.36
2018-09-13T06:39:08.472Z,98265.23
2018-09-13T06:41:37.623Z,98266.96
2018-09-13T06:44:06.955Z,98266.73
2018-09-13T06:46:36.120Z,98266.89
2018-09-13T06:49:05.077Z,98266.84
2018-09-13T06:51:34.269Z,98271.44
2018-09-13T06:54:03.490Z,98268.47
2018-09-13T06:56:32.687Z,98281.11
2018-09-13T06:59:02.172Z,98278.00
2018-09-13T07:01:31.459Z,98280.47
2018-09-13T07:04:00.451Z,98277.80
2018-09-13T07:06:29.489Z,98278.21
2018-09-13T07:08:58.598Z,98281.53
2018-09-13T07:11:28.024Z,98283.28
2018-09-13T07:13:57.506Z,98280.02
2018-09-13T07:16:26.780Z,98275.37
2018-09-13T07:18:56.171Z,98278.81
2018-09-13T07:21:25.467Z,98283.00
2018-09-13T07:23:54.867Z,98275.36
2018-09-13T07:26:24.289Z,98279.20
2018-09-13T07:28:53.304Z,98270.00
2018-09-13T07:31:22.639Z,98278.23
2018-09-13T07:33:51.828Z,98277.00
2018-09-13T07:36:21.189Z,98274.51
2018-09-13T07:38:50.623Z,98274.89
2018-09-13T07:41:19.810Z,98276.89
2018-09-13T07:43:49.239Z,98272.52
2018-09-13T07:46:18.357Z,98281.50
2018-09-13T07:48:47.765Z,98277.44
2018-09-13T07:51:16.889Z,98278.96
2018-09-13T07:53:47.810Z,98285.87
2018-09-13T07:56:17.162Z,98281.53
2018-09-13T07:58:46.108Z,98284.95
2018-09-13T08:01:15.471Z,98279.56
2018-09-13T08:03:44.639Z,98273.98
2018-09-13T08:06:13.871Z,98275.44
2018-09-13T08:08:43.437Z,98271.86
2018-09-13T08:11:12.639Z,98268.42
2018-09-13T08:13:42.005Z,98260.19
2018-09-13T08:16:10.982Z,98261.64
2018-09-13T08:18:40.345Z,98261.84
2018-09-13T08:21:09.690Z,98253.54
2018-09-13T08:23:39.002Z,98242.09
2018-09-13T08:26:08.246Z,98238.38
2018-09-13T08:28:37.419Z,98245.55
2018-09-13T08:31:06.669Z,98240.03
2018-09-13T08:33:35.911Z,98240.89
2018-09-13T08:36:05.151Z,98241.05
2018-09-13T08:38:34.447Z,98228.97
2018-09-13T08:41:04.089Z,98230.59
2018-09-13T08:43:33.429Z,98227.81
2018-09-13T08:46:02.348Z,98230.15
2018-09-13T08:48:31.839Z,98226.15
2018-09-13T08:51:00.988Z,98225.95
2018-09-13T08:53:30.380Z,98224.86
2018-09-13T08:55:59.419Z,98217.94
2018-09-13T08:58:28.842Z,98214.91
2018-09-13T09:00:59.134Z,98218.44
2018-09-13T09:03:28.149Z,98214.23
2018-09-13T09:05:57.314Z,98208.56
2018-09-13T09:08:26.635Z,98213.18
2018-09-13T09:10:56.291Z,98209.84
2018-09-13T09:13:25.727Z,98207.30
2018-09-13T09:15:54.871Z,98214.03
2018-09-13T09:18:23.902Z,98208.74
2018-09-13T09:20:53.278Z,98200.29
2018-09-13T09:23:22.353Z,98195.34
2018-09-13T09:25:51.594Z,98191.53
2018-09-13T09:28:20.852Z,98193.50
2018-09-13T09:30:50.304Z,98198.84
2018-09-13T09:33:19.464Z,98193.52
2018-09-13T09:35:48.871Z,98183.23
2018-09-13T09:38:18.508Z,98186.50
2018-09-13T09:40:47.752Z,98175.53
2018-09-13T09:43:17.162Z,98183.69
2018-09-13T09:45:46.572Z,98192.03
2018-09-13T09:48:15.688Z,98184.54
2018-09-13T09:50:44.789Z,98183.68
2018-09-13T09:53:14.276Z,98175.67
2018-09-13T09:55:43.592Z,98168.71
2018-09-13T09:58:13.021Z,98159.05
2018-09-13T10:00:47.208Z,98161.64
2018-09-13T10:03:16.513Z,98166.54
2018-09-13T10:05:45.779Z,98159.52
2018-09-13T10:08:15.284Z,98159.97
2018-09-13T10:10:44.395Z,98159.40
2018-09-13T10:13:13.828Z,98165.53
2018-09-13T10:15:48.070Z,98156.27
2018-09-13T10:18:22.512Z,98147.88
2018-09-13T10:20:56.671Z,98127.52
2018-09-13T10:23:31.162Z,98124.35
2018-09-13T10:26:05.379Z,98123.66
2018-09-13T10:28:39.653Z,98119.06
2018-09-13T10:31:14.104Z,98112.33
2018-09-13T10:33:48.344Z,98105.11
2018-09-13T10:36:22.935Z,98094.16
2018-09-13T10:38:57.533Z,98086.11
2018-09-13T10:41:31.983Z,98086.78
2018-09-13T10:44:06.221Z,98081.83
2018-09-13T10:46:35.927Z,98082.16
2018-09-13T10:49:10.233Z,98072.97
2018-09-13T10:51:44.475Z,98068.52
2018-09-13T10:54:18.653Z,98068.70
2018-09-13T10:56:47.696Z,98062.66
2018-09-13T10:59:16.760Z,98058.44
2018-09-13T11:01:46.057Z,98061.84
2018-09-13T11:04:15.532Z,98061.25
2018-09-13T11:06:44.887Z,98059.86
2018-09-13T11:09:15.069Z,98052.94
2018-09-13T11:11:44.785Z,98063.19
2018-09-13T11:14:22.971Z,98056.36
2018-09-13T11:16:52.030Z,98056.73
2018-09-13T11:19:21.494Z,98049.71
2018-09-13T11:21:51.247Z,98049.04
2018-09-13T11:24:20.390Z,98040.80
2018-09-13T11:26:49.751Z,98043.47
2018-09-13T11:29:19.047Z,98038.75
2018-09-13T11:31:48.624Z,98034.20
2018-09-13T11:34:17.755Z,98033.02
2018-09-13T11:36:47.233Z,98034.69
2018-09-13T11:39:16.642Z,98032.93
2018-09-13T11:41:46.245Z,98036.48
2018-09-13T11:44:15.602Z,98038.84
2018-09-13T11:46:44.671Z,98045.73
2018-09-13T11:49:14.189Z,98045.19
2018-09-13T11:51:43.471Z,98051.56
2018-09-13T11:54:12.915Z,98054.27
2018-09-13T11:56:42.268Z,98049.31
2018-09-13T11:59:11.511Z,98038.06
2018-09-13T12:01:41.139Z,98050.06
2018-09-13T12:04:10.260Z,98053.97
2018-09-13T12:06:39.375Z,98055.34
2018-09-13T12:09:14.088Z,98051.41
2018-09-13T12:11:43.503Z,98052.68
2018-09-13T12:14:12.786Z,98046.53
2018-09-13T12:16:42.434Z,98045.77
2018-09-13T12:19:11.561Z,98043.72
2018-09-13T12:21:47.206Z,98040.13
2018-09-13T12:24:17.690Z,98050.56
2018-09-13T12:26:47.732Z,98047.29
2018-09-13T12:29:17.120Z,98043.64
2018-09-13T12:31:46.179Z,98041.75
2018-09-13T12:34:15.323Z,98034.29
2018-09-13T12:36:44.757Z,98035.81
2018-09-13T12:39:14.040Z,98028.59
2018-09-13T12:41:43.363Z,98022.48
2018-09-13T12:44:12.848Z,98020.61
2018-09-13T12:46:42.272Z,98019.58
2018-09-13T12:49:11.737Z,98012.82
2018-09-13T12:51:40.908Z,98023.17
2018-09-13T12:54:10.119Z,98011.45
2018-09-13T12:56:39.488Z,98004.66
2018-09-13T12:59:08.960Z,98003.03
2018-09-13T13:01:38.651Z,98000.83
2018-09-13T13:04:08.161Z,97999.67
2018-09-13T13:06:37.408Z,97994.41
2018-09-13T13:09:09.552Z,98000.05
2018-09-13T13:11:38.767Z,97996.13
2018-09-13T13:14:07.914Z,97987.46
2018-09-13T13:16:37.325Z,97979.98
2018-09-13T13:19:06.927Z,97981.72
2018-09-13T13:21:36.330Z,97977.12
2018-09-13T13:24:05.690Z,97966.48
2018-09-13T13:26:34.832Z,97965.25
2018-09-13T13:29:03.919Z,97959.16
2018-09-13T13:31:33.067Z,97952.36
2018-09-13T13:34:02.412Z,97953.37
2018-09-13T13:36:31.806Z,97944.73
2018-09-13T13:39:01.155Z,97936.54
2018-09-13T13:41:30.404Z,97935.44
2018-09-13T13:43:59.743Z,97924.41
2018-09-13T13:46:28.867Z,97926.20
2018-09-13T13:48:58.272Z,97913.58
2018-09-13T13:51:27.424Z,97897.13
2018-09-13T13:53:56.507Z,97897.58
2018-09-13T13:56:25.756Z,97897.87
2018-09-13T13:58:55.105Z,97889.89
2018-09-13T14:01:24.279Z,97886.89
2018-09-13T14:03:53.257Z,97890.61
2018-09-13T14:06:22.578Z,97891.30
2018-09-13T14:08:51.777Z,97882.00
2018-09-13T14:11:21.168Z,97888.52
2018-09-13T14:13:50.626Z,97882.03
2018-09-13T14:16:19.714Z,97881.84
2018-09-13T14:18:49.226Z,97882.86
2018-09-13T14:21:18.712Z,97885.72
2018-09-13T14:23:48.025Z,97889.19
2018-09-13T14:26:17.267Z,97888.36
2018-09-13T14:28:46.717Z,97886.78
2018-09-13T14:31:16.016Z,97899.71
2018-09-13T14:33:45.284Z,97899.05
2018-09-13T14:36:14.571Z,97894.01
2018-09-13T14:38:43.876Z,97897.89
2018-09-13T14:41:13.347Z,97898.59
2018-09-13T14:43:42.712Z,97895.95
2018-09-13T14:46:11.979Z,97895.89
2018-09-13T14:48:41.271Z,97896.64
2018-09-13T14:51:10.579Z,97893.89
2018-09-13T14:53:39.923Z,97893.94
2018-09-13T14:56:09.342Z,97901.08
2018-09-13T14:58:38.782Z,97899.27
2018-09-13T15:01:08.340Z,97902.94
2018-09-13T15:03:37.375Z,97903.86
2018-09-13T15:06:06.583Z,97915.17
2018-09-13T15:08:35.868Z,97912.20
2018-09-13T15:11:05.180Z,97906.70
2018-09-13T15:13:34.502Z,97910.83
2018-09-13T15:16:04.680Z,97912.55
2018-09-13T15:18:33.978Z,97911.38
2018-09-13T15:21:02.935Z,97911.77
2018-09-13T15:23:32.316Z,97912.57
2018-09-13T15:26:01.336Z,97914.31
2018-09-13T15:28:30.896Z,97909.88
2018-09-13T15:31:00.164Z,97905.64
2018-09-13T15:33:29.522Z,97898.77
2018-09-13T15:35:58.620Z,97900.84
2018-09-13T15:38:27.717Z,97905.74
2018-09-13T15:40:57.070Z,97905.19
2018-09-13T15:43:26.359Z,97905.86
2018-09-13T15:45:55.546Z,97908.33
2018-09-13T15:48:24.817Z,97916.10
2018-09-13T15:50:54.263Z,97913.30
2018-09-13T15:53:23.624Z,97908.22
2018-09-13T15:55:53.011Z,97914.74
2018-09-13T15:58:22.468Z,97913.47
2018-09-13T16:00:51.837Z,97911.34
2018-09-13T16:03:20.846Z,97907.59
2018-09-13T16:05:50.260Z,97905.35
2018-09-13T16:08:19.490Z,97914.04
2018-09-13T16:10:48.768Z,97916.77
2018-09-13T16:13:18.054Z,97919.45
2018-09-13T16:15:47.359Z,97922.69
2018-09-13T16:18:16.492Z,97921.89
2018-09-13T16:20:45.601Z,97923.00
2018-09-13T16:23:15.096Z,97921.91
2018-09-13T16:25:44.491Z,97920.95
2018-09-13T16:28:13.681Z,97919.98
2018-09-13T16:30:43.044Z,97918.67
2018-09-13T16:33:12.193Z,97920.84
2018-09-13T16:35:45.472Z,97912.17
2018-09-13T16:38:19.916Z,97910.16
2018-09-13T16:40:54.229Z,97903.59
2018-09-13T16:43:28.701Z,97905.48
2018-09-13T16:45:57.975Z,97906.42
2018-09-13T16:48:32.252Z,97909.34
2018-09-13T16:51:01.551Z,97901.98
2018-09-13T16:53:31.058Z,97905.48
2018-09-13T16:56:00.470Z,97910.53
2018-09-13T16:58:29.824Z,97911.41
2018-09-13T17:00:59.258Z,97909.76
2018-09-13T17:03:28.603Z,97907.23
2018-09-13T17:05:57.776Z,97911.91
2018-09-13T17:08:27.019Z,97910.92
2018-09-13T17:10:56.211Z,97915.59
2018-09-13T17:13:25.165Z,97909.64
2018-09-13T17:15:54.536Z,97908.17
2018-09-13T17:18:23.750Z,97910.62
2018-09-13T17:20:52.749Z,97906.96
2018-09-13T17:23:21.945Z,97902.85
2018-09-13T17:25:51.256Z,97905.27
2018-09-13T17:28:20.743Z,97910.62
2018-09-13T17:30:50.126Z,97914.98
2018-09-13T17:33:19.327Z,97917.05
2018-09-13T17:35:48.765Z,97915.34
2018-09-13T17:38:21.617Z,97925.56
2018-09-13T17:40:51.189Z,97922.38
2018-09-13T17:43:20.696Z,97926.75
2018-09-13T17:45:50.270Z,97930.65
2018-09-13T17:48:19.573Z,97930.70
2018-09-13T17:50:48.845Z,97935.18
2018-09-13T17:53:18.066Z,97937.64
2018-09-13T17:55:47.363Z,97938.61
2018-09-13T17:58:16.700Z,97941.97
2018-09-13T18:00:46.027Z,97937.99
2018-09-13T18:03:15.475Z,97937.38
2018-09-13T18:05:44.811Z,97939.73
2018-09-13T18:08:14.239Z,97939.80
2018-09-13T18:10:43.567Z,97938.83
2018-09-13T18:13:12.569Z,97937.57
2018-09-13T18:15:42.150Z,97939.92
2018-09-13T18:18:12.042Z,97937.63
2018-09-13T18:20:51.103Z,97942.89
2018-09-13T18:23:20.757Z,97939.28
2018-09-13T18:25:51.043Z,97943.87
2018-09-13T18:28:21.051Z,97936.38
2018-09-13T18:30:50.411Z,97940.61
2018-09-13T18:33:19.893Z,97935.64
2018-09-13T18:35:49.051Z,97936.36
2018-09-13T18:38:18.309Z,97941.00
2018-09-13T18:40:47.805Z,97948.64
2018-09-13T18:43:17.219Z,97954.44
2018-09-13T18:45:47.185Z,97945.56
2018-09-13T18:48:16.650Z,97954.50
2018-09-13T18:50:45.909Z,97952.24
2018-09-13T18:53:15.199Z,97952.22
2018-09-13T18:55:44.634Z,97966.02
2018-09-13T18:58:13.840Z,97969.32
2018-09-13T19:00:43.205Z,97967.77
2018-09-13T19:03:12.656Z,97964.52
2018-09-13T19:05:42.234Z,97973.73
2018-09-13T19:08:12.197Z,97976.23
2018-09-13T19:10:41.614Z,97977.32
2018-09-13T19:13:10.994Z,97980.41
2018-09-13T19:15:41.210Z,97979.52
2018-09-13T19:18:10.687Z,97985.54
2018-09-13T19:20:39.880Z,97978.59
2018-09-13T19:23:09.920Z,97974.01
2018-09-13T19:25:40.055Z,97971.36
2018-09-13T19:28:09.102Z,97965.95
2018-09-13T19:30:39.347Z,97968.31
2018-09-13T19:33:08.812Z,97968.83
2018-09-13T19:35:40.114Z,97972.01
2018-09-13T19:38:09.684Z,97964.75
2018-09-13T19:40:39.798Z,97965.57
2018-09-13T19:43:09.887Z,97963.28
2018-09-13T19:45:39.785Z,97970.86
2018-09-13T19:48:09.532Z,97967.62
2018-09-13T19:50:38.930Z,97968.16
2018-09-13T19:53:08.332Z,97964.44
2018-09-13T19:55:38.370Z,97966.00
2018-09-13T19:58:07.362Z,97964.11
2018-09-13T20:00:36.435Z,97970.48
2018-09-13T20:03:05.869Z,97972.39
2018-09-13T20:05:35.092Z,97970.43
2018-09-13T20:08:04.701Z,97970.66
2018-09-13T20:10:33.993Z,97980.09
2018-09-13T20:13:02.970Z,97979.01
2018-09-13T20:15:32.177Z,97973.84
2018-09-13T20:18:01.210Z,97973.02
2018-09-13T20:20:30.425Z,97981.73
2018-09-13T20:22:59.981Z,97980.77
2018-09-13T20:25:29.266Z,97982.95
2018-09-13T20:27:58.831Z,97988.23
2018-09-13T20:30:28.218Z,97985.61
2018-09-13T20:32:57.059Z,97991.06
2018-09-13T20:35:26.155Z,97995.36
2018-09-13T20:37:55.183Z,97992.22
2018-09-13T20:40:24.385Z,98003.23
2018-09-13T20:42:53.590Z,98002.52
2018-09-13T20:45:22.845Z,98004.96
2018-09-13T20:47:52.049Z,98004.55
2018-09-13T20:50:21.255Z,98000.91
2018-09-13T20:52:50.657Z,98001.41
2018-09-13T20:55:19.896Z,98005.98
2018-09-13T20:57:49.401Z,98001.25
2018-09-13T21:00:18.796Z,98005.70
2018-09-13T21:02:49.251Z,98008.84
2018-09-13T21:05:19.103Z,98003.89
2018-09-13T21:07:48.647Z,98002.72
2018-09-13T21:10:17.929Z,98001.41
2018-09-13T21:12:47.145Z,97999.38
2018-09-13T21:15:16.523Z,97997.33
2018-09-13T21:17:45.897Z,97991.30
2018-09-13T21:20:15.183Z,97998.25
2018-09-13T21:22:44.287Z,97992.52
2018-09-13T21:25:13.471Z,97983.38
2018-09-13T21:27:42.874Z,97974.10
2018-09-13T21:30:12.172Z,97975.33
2018-09-13T21:32:41.432Z,97977.59
2018-09-13T21:35:10.571Z,97975.30
2018-09-13T21:37:39.612Z,97975.05
2018-09-13T21:40:08.796Z,97982.06
2018-09-13T21:42:38.112Z,97974.00
2018-09-13T21:45:07.719Z,97971.33
2018-09-13T21:47:37.209Z,97974.05
2018-09-13T21:50:06.871Z,97969.98
2018-09-13T21:52:36.224Z,97980.08
2018-09-13T21:55:05.283Z,97975.65
2018-09-13T21:57:34.676Z,97978.03
2018-09-13T22:00:03.822Z,97977.47
2018-09-13T22:02:33.109Z,97983.55
2018-09-13T22:05:02.288Z,97990.20
2018-09-13T22:07:31.463Z,97986.03
2018-09-13T22:10:00.910Z,97988.20
2018-09-13T22:12:30.150Z,97990.78
2018-09-13T22:14:59.363Z,97993.17
2018-09-13T22:17:28.609Z,97995.92
2018-09-13T22:19:57.851Z,97995.41
2018-09-13T22:22:27.251Z,97989.44
2018-09-13T22:24:56.297Z,97992.11
2018-09-13T22:27:25.243Z,97994.60
2018-09-13T22:29:54.162Z,97997.25
2018-09-13T22:32:23.248Z,97999.52
2018-09-13T22:34:52.415Z,97993.61
2018-09-13T22:37:21.840Z,97998.16
2018-09-13T22:39:51.127Z,97999.33
2018-09-13T22:42:20.331Z,98005.67
2018-09-13T22:44:49.662Z,98002.55
2018-09-13T22:47:19.016Z,98007.20
2018-09-13T22:49:48.208Z,98010.63
2018-09-13T22:52:17.259Z,98012.61
2018-09-13T22:54:46.431Z,98011.67
2018-09-13T22:57:15.888Z,98011.27
2018-09-13T22:59:44.955Z,98013.46
2018-09-13T23:02:14.201Z,98002.05
2018-09-13T23:04:43.488Z,98002.56
2018-09-13T23:07:12.419Z,97991.22
2018-09-13T23:09:41.515Z,97989.82
2018-09-13T23:12:10.700Z,97997.20
2018-09-13T23:14:40.044Z,97996.09
2018-09-13T23:17:09.368Z,97993.72
2018-09-13T23:19:38.628Z,97998.73
2018-09-13T23:22:08.956Z,98006.03
2018-09-13T23:24:38.340Z,98008.23
2018-09-13T23:27:09.542Z,97997.24
2018-09-13T23:29:39.144Z,97994.48
2018-09-13T23:32:08.505Z,97998.30
2018-09-13T23:34:37.849Z,97999.62
2018-09-13T23:37:06.827Z,98000.46
2018-09-13T23:39:36.365Z,97992.86
2018-09-13T23:42:05.487Z,97998.56
2018-09-13T23:44:34.840Z,97997.04
2018-09-13T23:47:04.210Z,97997.91
2018-09-13T23:49:33.434Z,97990.41
2018-09-13T23:52:02.339Z,97988.91
2018-09-13T23:54:31.200Z,97990.70
2018-09-13T23:57:00.636Z,97988.34
2018-09-13T23:59:29.965Z,97983.95
